CheckWX is a tool to help pilots better visualize weather data.  It is not intended as a substitute for an official pre-flight weather briefing.

12:45:03 UTC

KHRT TAF
Hurlburt Field Airport
Mary Esther, Florida, USA
TAF KHRT 161000Z 1610/1716 05004KT 9999 SCT030 QNH2996INS TEMPO 1610/1615 BKN020 BECMG 1615/1616 17010G15KT 9999 SCT040 SCT250 QNH2995INS BECMG 1700/1701 VRB04KT 9999 SCT020 SCT250 QNH2995INS BECMG 1715/1716 16010KT 9999 SCT030 SCT250 QNH3000INS TX31/1617Z TN22/1612Z

Jun-16@
10:00 UTC

Jun-16 @ 10:00 UTC

Jun-16@
15:00 UTC

Jun-16 @ 15:00 UTC

TAF KHRT 161000Z 1610/1716 05004KT 9999 SCT030 QNH2996INS
Wind
  • 050° at 4 KTS
Cloud Levels
  • Scattered at 3,000' AGL

Jun-16@
10:00 UTC

Jun-16 @ 10:00 UTC

Jun-16@
15:00 UTC

Jun-16 @ 15:00 UTC

TEMPO 1610/1615 BKN020

Temporary

Temporary Changes expected for less than half the time period

Cloud Levels
  • Broken at 2,000' AGL

Jun-16@
15:00 UTC

Jun-16 @ 15:00 UTC

Jun-17@
00:00 UTC

Jun-17 @ 00:00 UTC

BECMG 1615/1616 17010G15KT 9999 SCT040 SCT250 QNH2995INS

Becoming

Becoming Conditions expected by Sun, Jun 16, 2019 @ 16:00 UTC

Wind
  • 170° at 10 KTS
  • {Gusting to 15 KTS
Cloud Levels
  • Scattered at 4,000' AGL
  • Scattered at 25,000' AGL

Jun-17@
00:00 UTC

Jun-17 @ 00:00 UTC

Jun-17@
15:00 UTC

Jun-17 @ 15:00 UTC

BECMG 1700/1701 VRB04KT 9999 SCT020 SCT250 QNH2995INS

Becoming

Becoming Conditions expected by Mon, Jun 17, 2019 @ 01:00 UTC

Wind
  • Variable at 4 KTS
Cloud Levels
  • Scattered at 2,000' AGL
  • Scattered at 25,000' AGL

Jun-17@
15:00 UTC

Jun-17 @ 15:00 UTC

Jun-17@
16:00 UTC

Jun-17 @ 16:00 UTC

BECMG 1715/1716 16010KT 9999 SCT030 SCT250 QNH3000INS TX31/1617Z TN22/1612Z

Becoming

Becoming Conditions expected by Mon, Jun 17, 2019 @ 16:00 UTC

Wind
  • 160° at 10 KTS
Cloud Levels
  • Scattered at 3,000' AGL
  • Scattered at 25,000' AGL